Time;durP1;ratioP1;P1;durP2;ratioP2;P2;SDS_P1;SDS_P2;PMS_P1;PMS_P2;Temp;Humidity;BMP_temperature;BMP_pressure;BME280_temperature;BME280_humidity;BME280_pressure;Samples;Min_cycle;Max_cycle;Signal;HPM_P1;HPM_P2
2021/12/29 07:34:48;;;;;;;;;16.80;13.00;;;;;;;;5108081;27;2671619;-72
2021/12/29 07:37:14;;;;;;;;;14.00;12.00;;;;;;;;5180673;27;23430;-73
2021/12/29 07:39:40;;;;;;;;;17.00;14.50;;;;;;;;5188774;27;11440;-73
2021/12/29 07:42:06;;;;;;;;;12.75;11.25;;;;;;;;5185389;27;11492;-71
2021/12/29 07:44:31;;;;;;;;;24.25;24.25;;;;;;;;5159647;27;14390;-72
2021/12/29 07:46:59;;;;;;;;;18.75;17.75;;;;;;;;5178439;27;11589;-73
2021/12/29 07:49:24;;;;;;;;;20.25;17.50;;;;;;;;5176565;27;12478;-74
2021/12/29 07:51:49;;;;;;;;;24.50;18.50;;;;;;;;5158672;27;13468;-78
2021/12/29 07:54:15;;;;;;;;;19.75;18.50;;;;;;;;5159047;27;12258;-77
2021/12/29 07:56:41;;;;;;;;;30.50;20.50;;;;;;;;5179002;27;11703;-78
2021/12/29 07:59:07;;;;;;;;;21.75;21.75;;;;;;;;5159722;27;15001;-79
2021/12/29 08:01:32;;;;;;;;;24.00;23.00;;;;;;;;5178924;27;15009;-79
2021/12/29 08:03:58;;;;;;;;;23.00;21.00;;;;;;;;5178234;27;11880;-76
2021/12/29 08:06:23;;;;;;;;;23.25;19.00;;;;;;;;5178530;27;8975;-80
2021/12/29 08:08:48;;;;;;;;;28.00;20.75;;;;;;;;5159080;27;11766;-79
2021/12/29 08:11:14;;;;;;;;;25.50;22.50;;;;;;;;5178082;27;12259;-79
2021/12/29 08:13:39;;;;;;;;;25.50;23.00;;;;;;;;5177796;27;11449;-76
2021/12/29 08:16:05;;;;;;;;;23.25;20.25;;;;;;;;5178342;27;10043;-76
2021/12/29 08:18:30;;;;;;;;;24.75;20.50;;;;;;;;5158788;27;11647;-77
2021/12/29 08:20:59;;;;;;;;;28.50;23.00;;;;;;;;5178244;27;11385;-80
2021/12/29 08:23:24;;;;;;;;;30.50;22.00;;;;;;;;5177667;27;11663;-77
2021/12/29 08:25:50;;;;;;;;;23.25;23.00;;;;;;;;5177851;27;11450;-76
2021/12/29 08:28:15;;;;;;;;;22.00;18.25;;;;;;;;5177538;27;12256;-78
2021/12/29 08:30:41;;;;;;;;;23.00;21.00;;;;;;;;5177703;27;12178;-76
2021/12/29 08:33:06;;;;;;;;;19.00;16.75;;;;;;;;5156608;27;12614;-78
2021/12/29 08:35:31;;;;;;;;;21.00;20.00;;;;;;;;5178067;27;13250;-81
2021/12/29 08:37:57;;;;;;;;;17.50;15.50;;;;;;;;5175959;27;13380;-81
2021/12/29 08:40:23;;;;;;;;;18.00;15.75;;;;;;;;5177970;27;13386;-83
2021/12/29 08:42:48;;;;;;;;;18.50;14.50;;;;;;;;5178742;27;11445;-80
2021/12/29 08:45:14;;;;;;;;;14.25;13.25;;;;;;;;5167505;27;10592;-76
2021/12/29 08:47:40;;;;;;;;;22.50;17.50;;;;;;;;5162012;27;11366;-79
2021/12/29 08:50:07;;;;;;;;;21.50;20.75;;;;;;;;5148659;27;13840;-79
2021/12/29 08:52:33;;;;;;;;;23.75;22.25;;;;;;;;5168787;27;12352;-81
2021/12/29 08:54:59;;;;;;;;;25.00;22.00;;;;;;;;5148606;27;11492;-80
2021/12/29 08:57:24;;;;;;;;;24.00;20.75;;;;;;;;5160914;27;11427;-81
2021/12/29 08:59:50;;;;;;;;;23.50;19.50;;;;;;;;5142193;27;11632;-78
2021/12/29 09:02:15;;;;;;;;;29.00;24.75;;;;;;;;5162634;27;12406;-76
2021/12/29 09:04:41;;;;;;;;;20.25;18.50;;;;;;;;5152707;27;12628;-77
2021/12/29 09:07:06;;;;;;;;;22.25;20.00;;;;;;;;5172928;27;12174;-78
2021/12/29 09:09:31;;;;;;;;;25.75;23.25;;;;;;;;5166504;27;12176;-79
2021/12/29 09:11:58;;;;;;;;;24.25;22.75;;;;;;;;5162053;27;12055;-80
2021/12/29 09:14:24;;;;;;;;;28.25;22.00;;;;;;;;5162220;27;10721;-77
2021/12/29 09:16:49;;;;;;;;;27.50;23.25;;;;;;;;5162844;27;11561;-75
2021/12/29 09:19:14;;;;;;;;;23.00;21.00;;;;;;;;5143022;27;11721;-77
2021/12/29 09:21:43;;;;;;;;;26.50;20.75;;;;;;;;5162710;27;11512;-79
2021/12/29 09:24:09;;;;;;;;;20.75;19.00;;;;;;;;5157855;27;12715;-81
2021/12/29 09:26:34;;;;;;;;;29.00;22.00;;;;;;;;5162422;27;12727;-77
2021/12/29 09:28:59;;;;;;;;;28.25;21.50;;;;;;;;5162537;27;11448;-79
2021/12/29 09:31:25;;;;;;;;;34.25;25.75;;;;;;;;5162678;27;11357;-75
2021/12/29 09:33:51;;;;;;;;;27.00;23.75;;;;;;;;5162502;27;13489;-81
2021/12/29 09:36:16;;;;;;;;;20.25;20.25;;;;;;;;5163050;27;12460;-81
2021/12/29 09:38:42;;;;;;;;;23.25;20.25;;;;;;;;5143985;27;12291;-73
2021/12/29 09:41:09;;;;;;;;;22.25;22.00;;;;;;;;5163440;27;8776;-75
2021/12/29 09:43:35;;;;;;;;;58.50;41.50;;;;;;;;5144798;27;11723;-73
2021/12/29 09:46:00;;;;;;;;;51.25;41.75;;;;;;;;5162425;27;14452;-76
2021/12/29 09:48:25;;;;;;;;;62.00;43.50;;;;;;;;5144002;27;14720;-73
2021/12/29 09:50:51;;;;;;;;;31.00;25.50;;;;;;;;5162706;27;14866;-76
2021/12/29 09:53:16;;;;;;;;;26.25;22.75;;;;;;;;5143757;27;12790;-76
2021/12/29 09:55:44;;;;;;;;;31.25;24.00;;;;;;;;5161764;27;14908;-76
2021/12/29 09:58:09;;;;;;;;;26.00;23.00;;;;;;;;5143262;27;15610;-73
2021/12/29 10:00:41;;;;;;;;;29.25;28.25;;;;;;;;5162731;27;12192;-76
2021/12/29 10:03:07;;;;;;;;;29.25;27.25;;;;;;;;5162364;27;12920;-75
2021/12/29 10:05:33;;;;;;;;;21.75;19.25;;;;;;;;5162753;27;11434;-75
2021/12/29 10:08:10;;;;;;;;;25.00;23.00;;;;;;;;5162457;27;11415;-74
2021/12/29 10:10:38;;;;;;;;;26.25;23.00;;;;;;;;5161818;27;12518;-75
2021/12/29 10:13:05;;;;;;;;;24.25;22.75;;;;;;;;5162725;27;11485;-75
2021/12/29 10:15:31;;;;;;;;;33.00;25.00;;;;;;;;5161494;27;11768;-75
2021/12/29 10:18:01;;;;;;;;;27.50;21.75;;;;;;;;5143226;27;14186;-78
2021/12/29 10:20:26;;;;;;;;;31.50;25.25;;;;;;;;5161860;27;13306;-75
2021/12/29 10:22:59;;;;;;;;;27.75;22.50;;;;;;;;5142802;27;12719;-74
2021/12/29 10:25:24;;;;;;;;;28.00;25.75;;;;;;;;5162376;27;13468;-76
2021/12/29 10:27:51;;;;;;;;;30.75;25.00;;;;;;;;5162350;27;11615;-77
2021/12/29 10:30:22;;;;;;;;;24.75;22.00;;;;;;;;5161534;27;13563;-75
2021/12/29 10:32:48;;;;;;;;;26.75;22.00;;;;;;;;5141990;27;12310;-76
2021/12/29 10:35:24;;;;;;;;;26.25;23.50;;;;;;;;5162798;27;11447;-76
2021/12/29 10:37:51;;;;;;;;;27.50;23.25;;;;;;;;5162236;27;10463;-74
2021/12/29 10:40:36;;;;;;;;;25.50;22.75;;;;;;;;5161857;27;12766;-75
2021/12/29 10:43:02;;;;;;;;;33.75;27.25;;;;;;;;5168433;27;11503;-76
2021/12/29 10:45:29;;;;;;;;;35.50;33.00;;;;;;;;5169838;27;12952;-76
2021/12/29 10:47:54;;;;;;;;;35.75;30.75;;;;;;;;5162073;27;12394;-74
2021/12/29 10:50:20;;;;;;;;;29.00;25.75;;;;;;;;5163458;27;11505;-76
2021/12/29 10:52:54;;;;;;;;;35.50;29.50;;;;;;;;5160145;27;12238;-75
2021/12/29 10:55:19;;;;;;;;;25.75;24.75;;;;;;;;5158007;27;14665;-76
2021/12/29 10:57:45;;;;;;;;;28.00;26.75;;;;;;;;5160744;27;13679;-76
2021/12/29 11:00:15;;;;;;;;;32.00;26.75;;;;;;;;5162041;27;10959;-76
2021/12/29 11:02:42;;;;;;;;;32.25;27.50;;;;;;;;5161520;27;11541;-78
2021/12/29 11:05:09;;;;;;;;;31.00;27.00;;;;;;;;5141553;27;13251;-74
2021/12/29 11:07:36;;;;;;;;;30.25;28.00;;;;;;;;5161121;27;11474;-74
2021/12/29 11:10:15;;;;;;;;;28.25;25.75;;;;;;;;5160334;27;11943;-74
2021/12/29 11:12:48;;;;;;;;;29.25;27.50;;;;;;;;5161503;27;13373;-75
2021/12/29 11:15:18;;;;;;;;;31.25;22.75;;;;;;;;5161664;27;11683;-74
2021/12/29 11:17:43;;;;;;;;;26.00;24.75;;;;;;;;5161215;27;13387;-74
2021/12/29 11:20:09;;;;;;;;;27.25;24.75;;;;;;;;5142550;27;14149;-73
2021/12/29 11:22:38;;;;;;;;;26.50;23.50;;;;;;;;5159999;27;9955;-74
2021/12/29 11:25:03;;;;;;;;;31.00;23.50;;;;;;;;5160284;27;11465;-73
2021/12/29 11:27:30;;;;;;;;;21.50;20.25;;;;;;;;5140305;27;11176;-72
2021/12/29 11:29:59;;;;;;;;;20.75;20.00;;;;;;;;5159041;27;13308;-72
2021/12/29 11:32:35;;;;;;;;;15.25;14.00;;;;;;;;5158768;27;12179;-73
2021/12/29 11:35:07;;;;;;;;;21.00;18.00;;;;;;;;5156715;27;11663;-73
2021/12/29 11:37:33;;;;;;;;;22.50;21.00;;;;;;;;5158629;27;12280;-73
2021/12/29 11:39:58;;;;;;;;;25.50;23.00;;;;;;;;5159383;27;11485;-77
2021/12/29 11:42:23;;;;;;;;;17.50;15.75;;;;;;;;5159711;27;11222;-81
2021/12/29 11:44:49;;;;;;;;;19.25;15.75;;;;;;;;5159968;27;13320;-81
2021/12/29 11:47:14;;;;;;;;;22.00;17.75;;;;;;;;5159736;27;8884;-79
2021/12/29 11:49:39;;;;;;;;;24.75;21.00;;;;;;;;5159721;27;12190;-80
2021/12/29 11:52:12;;;;;;;;;19.50;16.50;;;;;;;;5143552;27;14287;-78
2021/12/29 11:54:37;;;;;;;;;19.25;17.00;;;;;;;;5161981;27;13567;-77
2021/12/29 11:57:10;;;;;;;;;14.50;13.50;;;;;;;;5160081;27;11382;-76
2021/12/29 11:59:35;;;;;;;;;24.00;22.25;;;;;;;;5160801;27;11450;-76
2021/12/29 12:02:02;;;;;;;;;23.50;21.25;;;;;;;;5160267;27;13425;-76
2021/12/29 12:04:28;;;;;;;;;23.25;20.25;;;;;;;;5159418;27;10438;-77
2021/12/29 12:07:01;;;;;;;;;25.25;23.00;;;;;;;;5166363;27;11501;-76
2021/12/29 12:09:26;;;;;;;;;24.50;19.75;;;;;;;;5159647;27;11809;-76
2021/12/29 12:11:54;;;;;;;;;23.00;19.00;;;;;;;;5160007;27;12188;-76
2021/12/29 12:14:30;;;;;;;;;19.00;17.75;;;;;;;;5168862;27;11454;-76
2021/12/29 12:16:56;;;;;;;;;19.25;18.00;;;;;;;;5158933;27;13514;-76
2021/12/29 12:19:25;;;;;;;;;24.50;21.25;;;;;;;;5157976;27;11425;-76
2021/12/29 12:22:00;;;;;;;;;18.75;18.00;;;;;;;;5162198;27;13457;-76
2021/12/29 12:24:26;;;;;;;;;23.50;19.75;;;;;;;;5159815;27;13301;-78
2021/12/29 12:26:58;;;;;;;;;15.25;15.25;;;;;;;;5163643;27;13733;-77
2021/12/29 12:29:25;;;;;;;;;17.25;15.50;;;;;;;;5164445;27;12269;-76
2021/12/29 12:32:01;;;;;;;;;15.50;13.50;;;;;;;;5163553;27;11840;-77
2021/12/29 12:34:27;;;;;;;;;22.00;18.25;;;;;;;;5163124;27;11691;-78
2021/12/29 12:36:52;;;;;;;;;14.75;14.00;;;;;;;;5163480;27;14545;-77
2021/12/29 12:39:19;;;;;;;;;13.00;13.00;;;;;;;;5163011;27;13214;-78
2021/12/29 12:41:46;;;;;;;;;15.50;14.00;;;;;;;;5163772;27;10643;-77
2021/12/29 12:44:11;;;;;;;;;14.25;13.75;;;;;;;;5163038;27;11464;-77
2021/12/29 12:46:38;;;;;;;;;20.00;16.50;;;;;;;;5163362;27;11631;-77
2021/12/29 12:49:19;;;;;;;;;14.75;14.75;;;;;;;;5163619;27;13856;-78
2021/12/29 12:51:59;;;;;;;;;17.75;15.50;;;;;;;;5163548;27;13287;-78
2021/12/29 12:54:27;;;;;;;;;19.00;17.00;;;;;;;;5144352;27;13824;-78
2021/12/29 12:56:53;;;;;;;;;14.25;14.25;;;;;;;;5163172;27;12102;-78
2021/12/29 12:59:18;;;;;;;;;17.25;16.00;;;;;;;;5162474;27;11797;-78
2021/12/29 13:01:46;;;;;;;;;16.25;12.00;;;;;;;;5162453;27;11493;-77
2021/12/29 13:04:13;;;;;;;;;15.00;14.00;;;;;;;;5162882;27;9144;-78
2021/12/29 13:06:39;;;;;;;;;14.00;12.00;;;;;;;;5162686;27;11409;-77
2021/12/29 13:09:06;;;;;;;;;13.75;13.75;;;;;;;;5163666;27;11377;-77
2021/12/29 13:11:32;;;;;;;;;17.50;16.25;;;;;;;;5163180;27;11429;-78
2021/12/29 13:13:59;;;;;;;;;21.00;15.00;;;;;;;;5162392;27;11526;-76
2021/12/29 13:16:26;;;;;;;;;19.00;18.75;;;;;;;;5163546;27;13471;-81
2021/12/29 13:18:51;;;;;;;;;19.00;17.25;;;;;;;;5163308;27;13295;-80
2021/12/29 13:21:21;;;;;;;;;18.75;16.25;;;;;;;;5162901;27;11432;-78
2021/12/29 13:23:47;;;;;;;;;20.50;18.25;;;;;;;;5162780;27;10564;-79
2021/12/29 13:26:13;;;;;;;;;28.00;20.00;;;;;;;;5162706;27;12578;-78
2021/12/29 13:28:39;;;;;;;;;16.75;16.75;;;;;;;;5162202;27;12554;-78
2021/12/29 13:31:14;;;;;;;;;17.50;15.50;;;;;;;;5161445;27;13203;-78
2021/12/29 13:33:43;;;;;;;;;18.00;15.50;;;;;;;;5159763;27;11671;-78
2021/12/29 13:36:09;;;;;;;;;18.75;17.50;;;;;;;;5161254;27;11408;-76
2021/12/29 13:38:36;;;;;;;;;17.50;15.25;;;;;;;;5141553;27;11406;-76
2021/12/29 13:41:01;;;;;;;;;16.00;14.50;;;;;;;;5158280;27;11838;-75
2021/12/29 13:43:29;;;;;;;;;15.00;15.00;;;;;;;;5161297;27;11822;-79
2021/12/29 13:45:56;;;;;;;;;17.75;15.25;;;;;;;;5161030;27;12653;-75
2021/12/29 13:48:24;;;;;;;;;22.00;15.75;;;;;;;;5161020;27;11700;-73
2021/12/29 13:51:03;;;;;;;;;18.00;16.75;;;;;;;;5160907;27;13850;-76
2021/12/29 13:53:30;;;;;;;;;19.50;17.00;;;;;;;;5159167;27;11504;-78
2021/12/29 13:55:56;;;;;;;;;20.75;16.75;;;;;;;;5161964;27;11997;-79
2021/12/29 13:58:22;;;;;;;;;15.00;13.75;;;;;;;;5162917;27;13450;-74
2021/12/29 14:00:48;;;;;;;;;12.00;11.50;;;;;;;;5162476;27;12409;-78
2021/12/29 14:03:13;;;;;;;;;23.75;19.00;;;;;;;;5162133;27;11404;-76
2021/12/29 14:05:40;;;;;;;;;16.75;16.00;;;;;;;;5162513;27;14673;-76
2021/12/29 14:08:07;;;;;;;;;16.75;14.00;;;;;;;;5161553;27;10701;-76
2021/12/29 14:10:33;;;;;;;;;19.25;18.00;;;;;;;;5162589;27;11483;-77
2021/12/29 14:13:05;;;;;;;;;16.25;16.25;;;;;;;;5162035;27;12367;-77
2021/12/29 14:15:31;;;;;;;;;9.00;9.00;;;;;;;;5161583;27;11511;-76
2021/12/29 14:17:58;;;;;;;;;17.50;16.25;;;;;;;;5160644;27;23062;-77
2021/12/29 14:20:23;;;;;;;;;14.50;12.00;;;;;;;;5161447;27;22532;-78
2021/12/29 14:22:48;;;;;;;;;18.25;16.00;;;;;;;;5161919;27;11793;-77
2021/12/29 14:25:15;;;;;;;;;16.00;13.75;;;;;;;;5161885;27;10368;-77
2021/12/29 14:27:51;;;;;;;;;17.50;13.50;;;;;;;;5162065;27;11447;-77
2021/12/29 14:30:18;;;;;;;;;15.75;12.50;;;;;;;;5161344;27;11451;-77
2021/12/29 14:32:54;;;;;;;;;17.00;14.00;;;;;;;;5161910;27;11424;-77
2021/12/29 14:35:20;;;;;;;;;16.25;12.25;;;;;;;;5161699;27;12964;-77
2021/12/29 14:37:45;;;;;;;;;12.25;12.25;;;;;;;;5161091;27;11642;-76
2021/12/29 14:40:21;;;;;;;;;11.75;11.75;;;;;;;;5161683;27;9472;-76
2021/12/29 14:42:46;;;;;;;;;12.00;9.00;;;;;;;;5161628;27;10739;-76
2021/12/29 14:45:12;;;;;;;;;11.00;11.00;;;;;;;;5161544;27;22498;-77
2021/12/29 14:47:37;;;;;;;;;10.75;8.00;;;;;;;;5161972;27;21443;-77
2021/12/29 14:50:14;;;;;;;;;12.75;11.00;;;;;;;;5161522;27;22032;-76
2021/12/29 14:52:45;;;;;;;;;12.25;8.25;;;;;;;;5161236;27;21721;-77
2021/12/29 14:55:11;;;;;;;;;10.00;8.00;;;;;;;;5160914;27;21453;-76
2021/12/29 14:57:38;;;;;;;;;11.25;11.00;;;;;;;;5161717;27;11349;-77
2021/12/29 15:00:07;;;;;;;;;13.50;11.00;;;;;;;;5161027;27;21479;-76
2021/12/29 15:02:34;;;;;;;;;11.50;11.00;;;;;;;;5161029;27;11357;-76
2021/12/29 15:05:08;;;;;;;;;15.50;12.00;;;;;;;;5161088;27;11412;-77
2021/12/29 15:07:34;;;;;;;;;11.25;8.75;;;;;;;;5161307;27;11363;-75
2021/12/29 15:10:03;;;;;;;;;17.75;13.00;;;;;;;;5160263;27;22040;-77
2021/12/29 15:12:30;;;;;;;;;10.00;10.00;;;;;;;;5160744;27;21779;-77
2021/12/29 15:14:55;;;;;;;;;16.00;13.25;;;;;;;;5160995;27;11351;-74
2021/12/29 15:17:21;;;;;;;;;14.50;13.50;;;;;;;;5161301;27;11417;-77
2021/12/29 15:19:46;;;;;;;;;13.25;11.00;;;;;;;;5161075;27;11647;-77
2021/12/29 15:22:12;;;;;;;;;15.25;14.75;;;;;;;;5161525;27;12982;-77
2021/12/29 15:24:37;;;;;;;;;18.00;14.75;;;;;;;;5161149;27;11845;-76
2021/12/29 15:27:04;;;;;;;;;16.00;15.00;;;;;;;;5142501;27;10671;-76
2021/12/29 15:29:29;;;;;;;;;22.75;19.25;;;;;;;;5161159;27;11432;-76
2021/12/29 15:31:55;;;;;;;;;19.75;17.00;;;;;;;;5160755;27;13588;-76
2021/12/29 15:34:22;;;;;;;;;19.75;13.00;;;;;;;;5160611;27;13190;-76
2021/12/29 15:36:53;;;;;;;;;16.50;15.25;;;;;;;;5161488;27;8756;-76
2021/12/29 15:39:18;;;;;;;;;19.50;16.50;;;;;;;;5161025;27;11770;-77
2021/12/29 15:41:44;;;;;;;;;78.00;59.00;;;;;;;;5142027;27;13181;-77
2021/12/29 15:44:09;;;;;;;;;72.00;56.67;;;;;;;;5160981;27;13747;-76
2021/12/29 15:46:34;;;;;;;;;49.75;40.25;;;;;;;;5160754;27;11852;-77
2021/12/29 15:48:59;;;;;;;;;27.75;25.00;;;;;;;;5160699;27;13394;-77
2021/12/29 15:51:25;;;;;;;;;23.25;17.50;;;;;;;;5160280;27;13238;-77
2021/12/29 15:53:51;;;;;;;;;19.25;15.50;;;;;;;;5159958;27;13405;-76
2021/12/29 15:56:19;;;;;;;;;17.25;17.25;;;;;;;;5163581;27;10344;-77
2021/12/29 15:58:44;;;;;;;;;26.25;21.50;;;;;;;;5164432;27;11594;-76
2021/12/29 16:01:10;;;;;;;;;24.50;21.50;;;;;;;;5164377;27;13362;-76
2021/12/29 16:03:36;;;;;;;;;23.25;21.00;;;;;;;;5163933;27;9063;-77
2021/12/29 16:06:02;;;;;;;;;17.75;16.00;;;;;;;;5163598;27;11933;-81
2021/12/29 16:08:27;;;;;;;;;25.00;20.50;;;;;;;;5161543;27;11604;-78
2021/12/29 16:10:53;;;;;;;;;22.75;20.50;;;;;;;;5163354;27;13430;-78
2021/12/29 16:13:18;;;;;;;;;23.25;19.00;;;;;;;;5163801;27;8900;-78
2021/12/29 16:15:46;;;;;;;;;22.00;17.50;;;;;;;;5163758;27;13459;-78
2021/12/29 16:18:11;;;;;;;;;19.00;19.00;;;;;;;;5163669;27;11860;-78
2021/12/29 16:20:37;;;;;;;;;19.00;17.00;;;;;;;;5163627;27;13372;-77
2021/12/29 16:23:03;;;;;;;;;25.75;22.00;;;;;;;;5163528;27;8838;-78
2021/12/29 16:25:28;;;;;;;;;24.25;20.00;;;;;;;;5144591;27;13116;-77
2021/12/29 16:27:54;;;;;;;;;15.25;12.50;;;;;;;;5164163;27;11490;-77
2021/12/29 16:30:20;;;;;;;;;21.00;20.00;;;;;;;;5163887;27;13225;-78
2021/12/29 16:32:46;;;;;;;;;21.25;19.50;;;;;;;;5163670;27;13451;-80
2021/12/29 16:35:13;;;;;;;;;22.75;20.00;;;;;;;;5163765;27;12279;-77
2021/12/29 16:37:38;;;;;;;;;22.75;20.75;;;;;;;;5163632;27;12291;-78
2021/12/29 16:40:08;;;;;;;;;21.25;19.50;;;;;;;;5163883;27;11544;-78
2021/12/29 16:42:33;;;;;;;;;26.75;21.00;;;;;;;;5163546;27;12254;-79
2021/12/29 16:44:58;;;;;;;;;29.75;27.25;;;;;;;;5163082;27;12191;-79
2021/12/29 16:47:24;;;;;;;;;27.00;22.75;;;;;;;;5144607;27;12012;-80
2021/12/29 16:49:50;;;;;;;;;22.75;22.50;;;;;;;;5162749;27;10561;-78
2021/12/29 16:52:16;;;;;;;;;31.00;26.50;;;;;;;;5162985;27;11434;-77
2021/12/29 16:54:41;;;;;;;;;30.00;29.00;;;;;;;;5163538;27;12364;-79
2021/12/29 16:57:07;;;;;;;;;31.50;27.25;;;;;;;;5145336;27;11936;-82
2021/12/29 16:59:33;;;;;;;;;30.00;24.75;;;;;;;;5164242;27;11621;-81
2021/12/29 17:01:58;;;;;;;;;29.25;26.00;;;;;;;;5165587;27;10504;-80
2021/12/29 17:04:23;;;;;;;;;22.25;21.50;;;;;;;;5164517;27;13272;-82
2021/12/29 17:06:49;;;;;;;;;22.00;21.50;;;;;;;;5163276;27;11972;-82
2021/12/29 17:09:14;;;;;;;;;26.50;25.50;;;;;;;;5164177;27;8810;-80
2021/12/29 17:11:40;;;;;;;;;24.00;23.50;;;;;;;;5144602;27;13554;-81
2021/12/29 17:14:10;;;;;;;;;25.75;23.75;;;;;;;;5163435;27;10423;-83
2021/12/29 17:16:37;;;;;;;;;21.00;20.00;;;;;;;;5150542;27;12840;-80
2021/12/29 17:19:03;;;;;;;;;28.25;23.00;;;;;;;;5162610;27;12228;-79
2021/12/29 17:21:28;;;;;;;;;25.25;21.75;;;;;;;;5159310;27;11505;-78
2021/12/29 17:23:53;;;;;;;;;18.75;18.00;;;;;;;;5162761;27;11526;-79
2021/12/29 17:26:19;;;;;;;;;24.50;21.00;;;;;;;;5162742;27;13258;-79
2021/12/29 17:28:44;;;;;;;;;32.25;24.25;;;;;;;;5162141;27;13510;-79
2021/12/29 17:31:09;;;;;;;;;29.50;27.75;;;;;;;;5162661;27;13670;-78
2021/12/29 17:33:34;;;;;;;;;32.25;27.25;;;;;;;;5161978;27;12341;-78
2021/12/29 17:36:00;;;;;;;;;34.75;28.25;;;;;;;;5160694;27;12215;-78
2021/12/29 17:38:26;;;;;;;;;24.50;19.75;;;;;;;;5161529;27;9552;-78
2021/12/29 17:40:51;;;;;;;;;33.00;25.25;;;;;;;;5162350;27;12211;-77
2021/12/29 17:43:17;;;;;;;;;29.00;22.25;;;;;;;;5162659;27;13880;-79
2021/12/29 17:45:42;;;;;;;;;27.25;25.00;;;;;;;;5162835;27;10547;-79
2021/12/29 17:48:12;;;;;;;;;30.25;28.00;;;;;;;;5162934;27;11596;-79
2021/12/29 17:50:37;;;;;;;;;25.50;21.50;;;;;;;;5162956;27;10500;-77
2021/12/29 17:53:03;;;;;;;;;29.50;24.50;;;;;;;;5162355;27;13300;-77
2021/12/29 17:55:28;;;;;;;;;30.00;27.00;;;;;;;;5162785;27;8996;-78
2021/12/29 17:57:53;;;;;;;;;29.50;28.25;;;;;;;;5162340;27;13514;-76
2021/12/29 18:00:20;;;;;;;;;32.75;27.25;;;;;;;;5162489;27;13476;-77
2021/12/29 18:02:46;;;;;;;;;25.75;23.50;;;;;;;;5161642;27;12496;-75
2021/12/29 18:05:12;;;;;;;;;24.25;24.00;;;;;;;;5159928;27;13282;-78
2021/12/29 18:07:37;;;;;;;;;24.50;20.75;;;;;;;;5161693;27;11588;-77
2021/12/29 18:10:04;;;;;;;;;27.00;24.75;;;;;;;;5161645;27;11520;-78
2021/12/29 18:12:29;;;;;;;;;23.25;19.50;;;;;;;;5162443;27;10441;-79
2021/12/29 18:14:54;;;;;;;;;24.25;21.50;;;;;;;;5162342;27;12265;-79
2021/12/29 18:17:21;;;;;;;;;25.00;20.00;;;;;;;;5142561;27;11484;-75
2021/12/29 18:19:46;;;;;;;;;25.25;20.25;;;;;;;;5161556;27;12651;-76
2021/12/29 18:22:12;;;;;;;;;2.50;2.50;;;;;;;;5161542;27;11486;-76
2021/12/29 18:24:37;;;;;;;;;20.00;17.50;;;;;;;;5160988;27;22560;-78
2021/12/29 18:27:02;;;;;;;;;18.50;18.50;;;;;;;;5160838;27;24164;-75
2021/12/29 18:29:29;;;;;;;;;30.00;24.50;;;;;;;;5161159;27;12421;-74
2021/12/29 18:31:55;;;;;;;;;25.00;20.50;;;;;;;;5161277;27;12471;-73
2021/12/29 18:34:20;;;;;;;;;20.00;19.25;;;;;;;;5161780;27;11465;-74
2021/12/29 18:36:45;;;;;;;;;18.25;17.00;;;;;;;;5161794;27;12237;-73
2021/12/29 18:39:10;;;;;;;;;30.00;25.00;;;;;;;;5161812;27;14406;-72
2021/12/29 18:41:36;;;;;;;;;25.75;24.75;;;;;;;;5161527;27;13375;-73
2021/12/29 18:44:01;;;;;;;;;32.50;25.00;;;;;;;;5161513;27;14587;-71
2021/12/29 18:46:27;;;;;;;;;23.25;22.00;;;;;;;;5161505;27;13421;-74
2021/12/29 18:48:52;;;;;;;;;20.50;17.50;;;;;;;;5161325;27;12420;-72
2021/12/29 18:51:19;;;;;;;;;27.25;26.25;;;;;;;;5161064;27;12361;-72
2021/12/29 18:53:44;;;;;;;;;29.00;24.25;;;;;;;;5160658;27;12272;-73
2021/12/29 18:56:10;;;;;;;;;42.50;37.25;;;;;;;;5160754;27;11484;-72
2021/12/29 18:58:35;;;;;;;;;28.75;28.25;;;;;;;;5161453;27;12756;-73
2021/12/29 19:01:02;;;;;;;;;31.25;27.75;;;;;;;;5160982;27;12385;-75
2021/12/29 19:03:27;;;;;;;;;35.75;33.00;;;;;;;;5161323;27;12270;-74
2021/12/29 19:05:53;;;;;;;;;38.75;33.50;;;;;;;;5160798;27;12558;-75
2021/12/29 19:08:19;;;;;;;;;38.50;36.50;;;;;;;;5140581;27;11528;-74
2021/12/29 19:10:44;;;;;;;;;45.50;41.25;;;;;;;;5140163;27;9651;-74
2021/12/29 19:13:10;;;;;;;;;46.75;37.75;;;;;;;;5149147;27;13409;-74
2021/12/29 19:15:35;;;;;;;;;48.67;42.33;;;;;;;;5169718;27;11432;-77
2021/12/29 19:18:01;;;;;;;;;50.33;41.00;;;;;;;;5165208;27;11621;-76
2021/12/29 19:20:33;;;;;;;;;48.33;42.33;;;;;;;;5159719;27;14393;-79
2021/12/29 19:22:59;;;;;;;;;46.00;41.00;;;;;;;;5159076;27;13382;-73
2021/12/29 19:25:29;;;;;;;;;48.33;42.00;;;;;;;;5163003;27;11480;-74
2021/12/29 19:28:02;;;;;;;;;51.67;44.33;;;;;;;;5160705;27;10928;-74
2021/12/29 19:30:28;;;;;;;;;51.00;44.33;;;;;;;;5160777;27;13319;-74
2021/12/29 19:32:53;;;;;;;;;47.75;41.50;;;;;;;;5160212;27;11472;-73
2021/12/29 19:35:19;;;;;;;;;53.67;44.67;;;;;;;;5160631;27;13218;-75
2021/12/29 19:37:45;;;;;;;;;56.00;45.00;;;;;;;;5159463;27;13279;-76
2021/12/29 19:40:12;;;;;;;;;60.67;47.00;;;;;;;;5158290;27;11375;-76
2021/12/29 19:42:38;;;;;;;;;60.00;48.67;;;;;;;;5159207;27;12278;-74
2021/12/29 19:45:05;;;;;;;;;51.67;43.67;;;;;;;;5157928;27;12054;-73
2021/12/29 19:47:31;;;;;;;;;58.00;48.33;;;;;;;;5141721;27;12996;-74
2021/12/29 19:49:56;;;;;;;;;50.67;42.33;;;;;;;;5156996;27;11857;-74
2021/12/29 19:52:22;;;;;;;;;60.00;46.00;;;;;;;;5153027;27;10702;-72
2021/12/29 19:54:48;;;;;;;;;59.67;46.00;;;;;;;;5158268;27;13429;-69
2021/12/29 19:57:14;;;;;;;;;57.33;45.00;;;;;;;;5160697;27;10593;-73
2021/12/29 19:59:40;;;;;;;;;58.67;49.00;;;;;;;;5160028;27;11592;-71
2021/12/29 20:02:05;;;;;;;;;51.00;44.00;;;;;;;;5163329;27;10358;-70
2021/12/29 20:04:31;;;;;;;;;58.00;48.00;;;;;;;;5157533;27;12239;-72
2021/12/29 20:06:57;;;;;;;;;58.67;46.00;;;;;;;;5158386;27;9833;-71
2021/12/29 20:09:23;;;;;;;;;48.00;41.67;;;;;;;;5162901;27;9646;-69
2021/12/29 20:11:48;;;;;;;;;60.00;46.00;;;;;;;;5164799;27;13221;-71
2021/12/29 20:14:14;;;;;;;;;54.67;44.67;;;;;;;;5160366;27;13242;-70
2021/12/29 20:16:42;;;;;;;;;47.33;41.00;;;;;;;;5159182;27;13589;-71
2021/12/29 20:19:07;;;;;;;;;47.00;39.33;;;;;;;;5161912;27;13909;-70
2021/12/29 20:21:33;;;;;;;;;61.00;46.00;;;;;;;;5166638;27;12268;-70
2021/12/29 20:23:59;;;;;;;;;60.00;49.00;;;;;;;;5159809;27;13298;-70
2021/12/29 20:26:25;;;;;;;;;58.67;47.67;;;;;;;;5161986;27;9702;-71
2021/12/29 20:28:50;;;;;;;;;61.67;49.33;;;;;;;;5162760;27;13217;-71
2021/12/29 20:31:18;;;;;;;;;63.67;46.67;;;;;;;;5158364;27;13409;-71
2021/12/29 20:33:45;;;;;;;;;55.00;45.00;;;;;;;;5157962;27;11659;-69
2021/12/29 20:36:10;;;;;;;;;58.00;46.67;;;;;;;;5158510;27;14454;-71
2021/12/29 20:38:35;;;;;;;;;59.33;47.00;;;;;;;;5158308;27;11407;-71
2021/12/29 20:41:01;;;;;;;;;61.00;49.33;;;;;;;;5159322;27;11468;-72
2021/12/29 20:43:26;;;;;;;;;55.33;45.00;;;;;;;;5161286;27;13208;-72
2021/12/29 20:45:51;;;;;;;;;40.50;38.25;;;;;;;;5142744;27;15344;-72
2021/12/29 20:48:17;;;;;;;;;41.00;35.25;;;;;;;;5162261;27;13770;-72
2021/12/29 20:50:42;;;;;;;;;39.75;34.25;;;;;;;;5160883;27;10354;-72
2021/12/29 20:53:08;;;;;;;;;39.75;37.75;;;;;;;;5160557;27;12392;-72
2021/12/29 20:55:33;;;;;;;;;35.50;31.50;;;;;;;;5161267;27;8812;-71
2021/12/29 20:57:58;;;;;;;;;40.50;38.25;;;;;;;;5163420;27;11407;-72
2021/12/29 21:00:24;;;;;;;;;41.00;38.75;;;;;;;;5167368;27;13248;-72
2021/12/29 21:02:49;;;;;;;;;41.25;38.50;;;;;;;;5171299;27;10507;-72
2021/12/29 21:05:15;;;;;;;;;48.50;41.25;;;;;;;;5172409;27;8827;-72
2021/12/29 21:07:40;;;;;;;;;46.00;39.50;;;;;;;;5172275;27;12718;-72
2021/12/29 21:10:13;;;;;;;;;45.00;41.00;;;;;;;;5171782;27;12384;-72
2021/12/29 21:12:39;;;;;;;;;46.00;41.00;;;;;;;;5169827;27;12472;-72
2021/12/29 21:15:07;;;;;;;;;49.67;43.67;;;;;;;;5172211;27;11490;-72
2021/12/29 21:17:32;;;;;;;;;44.33;40.00;;;;;;;;5182933;27;11500;-72
2021/12/29 21:19:57;;;;;;;;;44.33;41.00;;;;;;;;5182921;27;11547;-75
2021/12/29 21:22:22;;;;;;;;;47.00;40.33;;;;;;;;5183322;27;8766;-72
2021/12/29 21:24:52;;;;;;;;;49.00;42.33;;;;;;;;5174469;27;11860;-71
2021/12/29 21:27:18;;;;;;;;;55.00;46.00;;;;;;;;5161287;27;8799;-73
2021/12/29 21:29:44;;;;;;;;;54.33;46.33;;;;;;;;5163872;27;13313;-73
2021/12/29 21:32:09;;;;;;;;;58.67;50.00;;;;;;;;5159923;27;11891;-73
2021/12/29 21:34:34;;;;;;;;;57.00;50.00;;;;;;;;5160056;27;12207;-73
2021/12/29 21:37:01;;;;;;;;;61.00;50.00;;;;;;;;5161404;27;9059;-72
2021/12/29 21:39:26;;;;;;;;;63.00;52.67;;;;;;;;5160101;27;8784;-72
2021/12/29 21:41:51;;;;;;;;;55.33;46.00;;;;;;;;5159225;27;11572;-73
2021/12/29 21:44:17;;;;;;;;;65.33;51.00;;;;;;;;5157661;27;13388;-72
2021/12/29 21:46:42;;;;;;;;;65.00;52.00;;;;;;;;5160329;27;10398;-72
2021/12/29 21:49:07;;;;;;;;;64.33;52.67;;;;;;;;5160741;27;9591;-72